Lancaster, VA (22503)

12:57 PM EST on February 13, 2016 (GMT -0500)
Drum Point | | Change Station
CLOSE
Current Station
Personal Weather Station
Location: Lancaster, VA
Elevation: 30 ft
Nearby Weather Stations
Active Advisory: Wind Chill Advisory

Elev 30 ft 37.73 °N, 76.51 °W | Updated 1 second ago

Mostly Cloudy
Mostly Cloudy
29.8 °F
Feels Like 21 °F
N
10.0
Wind Variable Wind from NNE
Gusts 14.0 mph

Today
High -- | Low -- °F
--% Chance of Precip.
Yesterday
High -- | Low -- °F
Precip. -- in
Pressure 30.27 in
Visibility 10.0 miles
Clouds Mostly Cloudy 7000 ft
Windchill 21 °F
Dew Point 8 °F
Humidity 40%
Rainfall 0.00 in
Snow Depth Not available.
6:58 AM 5:42 PM
Waxing Crescent, 32% visible
METAR KFYJ 131735Z AUTO 27012G21KT 10SM BKN070 M01/M18 A3027 RMK AO2 T10101184
Pressure 30.27 in
Visibility 10.0 miles
Clouds Mostly Cloudy 7000 ft
Windchill 21 °F
Dew Point 8 °F
Humidity 40%
Rainfall 0.00 in
Snow Depth Not available.
6:58 AM 5:42 PM
Waxing Crescent, 32% visible
METAR KFYJ 131735Z AUTO 27012G21KT 10SM BKN070 M01/M18 A3027 RMK AO2 T10101184

10-Day Weather Forecast

Almanac

Astronomy

Feb. 13, 2016 Rise Set
Actual Time
Civil Twilight
Nautical Twilight
Astronomical Twilight
Moon
Length of Visible Light
Length of Day
Tomorrow will be .
, % of the Moon is Illuminated

Today's Extremes

State Highs State Lows

Community

WunderPhotos

Upload Photos

1,892,623 photos uploaded!

WunderBlog® & News

Nearby

Air Quality

  Air Quality AQ Index Pollutant
Not available.

Snow Depth

Station Depth Elevation

Earthquake Activity

City Distance Mag. Time & Date
Minimum magnitude displayed is 2.5.

Coastal Water Temperatures

Place Temperature

Stations

Nearby Weather Stations

Station Location Temp. Windchill Dew Point Humidity Wind Precip. Elev Updated Type
                   

Watches & Warnings

Wind Chill Advisory
Issued: 10:18 AM EST Feb. 13, 2016 – National Weather Service

... Wind Chill Advisory remains in effect from midnight tonight to
10 am EST Sunday...

* areas affected: Virginia Northern Neck... and the lower
Maryland and Virginia Eastern Shore.

* Hazards: dangerously low wind chills. Northwest winds 15 to 25
mph with gusts to 30 mph across the Northern Neck. Northwest
20 to 30 mph with gusts to 40 mph across the Eastern Shore.

* Wind chill values: zero to five below zero.

* Timing: late tonight and early Sunday morning.

* Impacts: wind chill values potentially reaching dangerous
levels. The low wind chills have the potential to result in
hypothermia if care is not taken to stay warm and sheltered.

Precautionary/preparedness actions...

A Wind Chill Advisory means that very cold air and strong winds
will combine to generate low wind chills. This will result in
frost bite and lead to hypothermia if precautions are not taken.
If you must venture outdoors... make sure you wear a hat and
gloves.